< < Back
Terminal Aerodrome Forecast


Current Version              Previous Versions:   1  2  3  4  5  6  7  8  9  

Terminal Aerodrome Forecast

794
FTUS42 KILM 042325
TAFFLO
TAF
KFLO 042325Z 0500/0524 22006KT P6SM VCSH SCT050 SCT250
     FM051600 21008KT P6SM VCTS BKN050CB=

Latest METAR

976
SAUS70 KWBC 050400 RRB
MTRFLO
METAR KFLO 050353Z AUTO 24011KT 10SM CLR 27/21 A3007 RMK AO2 SLP178
T02670206


USA.gov is the U.S. government's official web portal to all federal, state and local government web resources and services.